createdAt,value
2016-03-19T00:00:39.564Z,6.6
2016-03-19T00:01:39.582Z,6.65
2016-03-19T00:02:33.287Z,6.59
2016-03-19T00:03:33.353Z,6.67
2016-03-19T00:04:33.325Z,6.59
2016-03-19T00:05:33.452Z,6.57
2016-03-19T00:06:39.658Z,6.56
2016-03-19T00:07:39.707Z,6.67
2016-03-19T00:08:33.413Z,6.54
2016-03-19T00:09:46.181Z,6.57
2016-03-19T00:10:33.309Z,6.62
2016-03-19T00:11:33.483Z,6.53
2016-03-19T00:12:33.471Z,6.6
2016-03-19T00:13:34.302Z,6.52
2016-03-19T00:14:39.788Z,6.54
2016-03-19T00:15:33.541Z,6.64
2016-03-19T00:16:33.560Z,6.57
2016-03-19T00:17:33.609Z,6.53
2016-03-19T00:18:33.691Z,6.59
2016-03-19T00:19:33.615Z,6.57
2016-03-19T00:20:33.649Z,6.5
2016-03-19T00:21:33.651Z,6.54
2016-03-19T00:22:33.670Z,6.67
2016-03-19T00:23:33.688Z,6.56
2016-03-19T00:24:33.707Z,6.5
2016-03-19T00:25:33.693Z,6.54
2016-03-19T00:26:34.321Z,6.49
2016-03-19T00:27:33.746Z,6.52
2016-03-19T00:28:33.764Z,6.43
2016-03-19T00:29:33.767Z,6.49
2016-03-19T00:30:46.535Z,6.46
2016-03-19T00:31:46.601Z,6.49
2016-03-19T00:32:59.478Z,6.53
2016-03-19T00:33:59.528Z,6.46
2016-03-19T00:34:33.828Z,6.47
2016-03-19T00:35:33.955Z,6.5
2016-03-19T00:36:33.942Z,6.5
2016-03-19T00:37:40.163Z,6.56
2016-03-19T00:38:40.229Z,6.54
2016-03-19T00:39:34.544Z,6.54
2016-03-19T00:40:33.953Z,6.46
2016-03-19T00:41:33.955Z,6.44
2016-03-19T00:42:40.239Z,6.44
2016-03-19T00:43:46.710Z,6.53
2016-03-19T00:44:34.042Z,6.44
2016-03-19T00:45:59.701Z,6.36
2016-03-19T00:46:34.250Z,6.36
2016-03-19T00:47:59.738Z,6.46
2016-03-19T00:48:34.349Z,6.53
2016-03-19T00:49:34.149Z,6.46
2016-03-19T00:50:40.371Z,6.49
2016-03-19T00:51:34.139Z,6.53
2016-03-19T00:52:46.891Z,6.47
2016-03-19T00:53:34.191Z,6.53
2016-03-19T00:54:34.210Z,6.56
2016-03-19T00:55:34.196Z,6.49
2016-03-19T00:56:34.418Z,6.5
2016-03-19T00:57:34.374Z,6.54
2016-03-19T00:58:34.251Z,6.54
2016-03-19T00:59:40.535Z,6.57
2016-03-19T01:00:34.288Z,6.65
2016-03-19T01:01:47.040Z,6.59
2016-03-19T01:02:34.340Z,6.56
2016-03-19T01:03:34.420Z,6.52
2016-03-19T01:04:34.362Z,6.49
2016-03-19T01:05:34.379Z,6.43
2016-03-19T01:06:34.414Z,6.43
2016-03-19T01:07:34.401Z,6.38
2016-03-19T01:08:34.410Z,6.49
2016-03-19T01:09:34.434Z,6.39
2016-03-19T01:10:34.428Z,6.41
2016-03-19T01:11:34.436Z,6.39
2016-03-19T01:12:34.508Z,6.41
2016-03-19T01:13:34.427Z,6.39
2016-03-19T01:14:34.567Z,6.35
2016-03-19T01:15:40.911Z,6.38
2016-03-19T01:16:34.504Z,6.41
2016-03-19T01:17:34.518Z,6.35
2016-03-19T01:18:34.519Z,6.39
2016-03-19T01:19:47.287Z,6.35
2016-03-19T01:20:35.991Z,6.43
2016-03-19T01:21:34.587Z,6.41
2016-03-19T01:22:34.573Z,6.39
2016-03-19T01:23:40.872Z,6.29
2016-03-19T01:24:40.905Z,6.31
2016-03-19T01:25:53.846Z,6.36
2016-03-19T01:26:34.676Z,6.31
2016-03-19T01:28:00.350Z,6.12
2016-03-19T01:28:41.056Z,6.12
2016-03-19T01:29:34.871Z,6.19
2016-03-19T01:30:34.718Z,6.16
2016-03-19T01:31:34.751Z,6.17
2016-03-19T01:32:34.738Z,6.26
2016-03-19T01:33:34.772Z,6.09
2016-03-19T01:34:34.791Z,6.16
2016-03-19T01:35:34.809Z,6.09
2016-03-19T01:36:47.578Z,6.12
2016-03-19T01:37:34.830Z,6.15
2016-03-19T01:38:54.161Z,6.15
2016-03-19T01:39:34.866Z,6.06
2016-03-19T01:40:35.494Z,6.06
2016-03-19T01:41:34.903Z,6.09
2016-03-19T01:42:34.921Z,6.12
2016-03-19T01:43:34.940Z,6.02
2016-03-19T01:44:35.004Z,6.19
2016-03-19T01:45:34.977Z,6.2
2016-03-19T01:46:35.010Z,6.19
2016-03-19T01:47:35.013Z,6.19
2016-03-19T01:48:35.016Z,6.19
2016-03-19T01:49:41.331Z,6.2
2016-03-19T01:50:35.068Z,6.19
2016-03-19T01:51:35.070Z,6.16
2016-03-19T01:52:35.074Z,6.09
2016-03-19T01:53:35.107Z,6.12
2016-03-19T01:54:35.126Z,6.17
2016-03-19T01:55:35.112Z,6.12
2016-03-19T01:56:47.896Z,6.13
2016-03-19T01:57:41.681Z,6.19
2016-03-19T01:58:35.167Z,6.19
2016-03-19T01:59:54.452Z,6.2
2016-03-19T02:00:35.611Z,6.22
2016-03-19T02:01:35.239Z,6.15
2016-03-19T02:02:35.241Z,6.22
2016-03-19T02:03:41.540Z,6.22
2016-03-19T02:04:41.559Z,6.35
2016-03-19T02:05:35.312Z,6.26
2016-03-19T02:06:35.158Z,6.22
2016-03-19T02:07:35.535Z,6.19
2016-03-19T02:08:54.539Z,6.22
2016-03-19T02:09:35.572Z,6.19
2016-03-19T02:10:35.481Z,6.2
2016-03-19T02:11:35.391Z,6.25
2016-03-19T02:12:35.424Z,6.17
2016-03-19T02:13:35.427Z,6.17
2016-03-19T02:14:35.460Z,6.16
2016-03-19T02:15:35.667Z,6.1
2016-03-19T02:16:41.747Z,6.2
2016-03-19T02:17:48.249Z,6.17
2016-03-19T02:18:35.518Z,6.26
2016-03-19T02:19:54.740Z,6.12
2016-03-19T02:20:35.523Z,6.2
2016-03-19T02:21:35.588Z,6.2
2016-03-19T02:22:41.841Z,6.16
2016-03-19T02:23:35.610Z,6.09
2016-03-19T02:24:48.362Z,6.15
2016-03-19T02:25:41.912Z,6.1
2016-03-19T02:26:35.665Z,6.06
2016-03-19T02:27:54.871Z,6.07
2016-03-19T02:28:41.936Z,6.02
2016-03-19T02:29:35.703Z,6.15
2016-03-19T02:30:35.737Z,6.15
2016-03-19T02:31:35.069Z,6.07
2016-03-19T02:32:35.759Z,6.06
2016-03-19T02:33:35.746Z,6.06
2016-03-19T02:34:35.765Z,6.15
2016-03-19T02:35:35.798Z,6.09
2016-03-19T02:36:35.878Z,6.13
2016-03-19T02:37:35.835Z,6.07
2016-03-19T02:38:35.853Z,6.05
2016-03-19T02:39:48.591Z,6.06
2016-03-19T02:40:35.858Z,6.13
2016-03-19T02:41:35.924Z,5.99
2016-03-19T02:42:36.520Z,5.97
2016-03-19T02:43:35.945Z,6.07
2016-03-19T02:44:48.697Z,6.07
2016-03-19T02:45:36.591Z,6.02
2016-03-19T02:46:35.985Z,6.06
2016-03-19T02:47:36.002Z,6.09
2016-03-19T02:48:36.005Z,6.1
2016-03-19T02:49:36.118Z,6.07
2016-03-19T02:50:48.792Z,6.09
2016-03-19T02:51:36.060Z,6.07
2016-03-19T02:52:36.078Z,6.01
2016-03-19T02:53:48.174Z,6.02
2016-03-19T02:54:36.099Z,6.15
2016-03-19T02:55:36.134Z,6.02
2016-03-19T02:56:36.136Z,6.06
2016-03-19T02:57:36.154Z,6.06
2016-03-19T02:58:36.188Z,5.99
2016-03-19T02:59:36.190Z,6.05
2016-03-19T03:00:48.944Z,6.02
2016-03-19T03:01:36.228Z,5.98
2016-03-19T03:03:45.811Z,5.99
2016-03-19T03:04:45.829Z,5.97
2016-03-19T03:05:45.879Z,5.99
2016-03-19T03:06:45.881Z,6.05
2016-03-19T03:07:45.869Z,5.92
2016-03-19T03:08:58.700Z,5.92
2016-03-19T03:09:45.905Z,5.95
2016-03-19T03:11:05.174Z,5.98
2016-03-19T03:11:45.973Z,5.94
2016-03-19T03:13:11.648Z,5.92
2016-03-19T03:13:45.978Z,5.91
2016-03-19T03:14:46.605Z,5.94
2016-03-19T03:15:46.015Z,5.84
2016-03-19T03:16:46.033Z,5.84
2016-03-19T03:17:46.036Z,5.83
2016-03-19T03:18:46.070Z,5.87
2016-03-19T03:19:52.480Z,5.91
2016-03-19T03:20:46.091Z,5.79
2016-03-19T03:21:58.843Z,5.88
2016-03-19T03:22:58.846Z,5.81
2016-03-19T03:23:46.271Z,5.87
2016-03-19T03:25:05.368Z,5.8
2016-03-19T03:25:58.917Z,5.84
2016-03-19T03:27:17.592Z,5.74
2016-03-19T03:27:58.954Z,5.81
2016-03-19T03:28:46.237Z,5.76
2016-03-19T03:30:05.443Z,5.72
2016-03-19T03:30:46.243Z,5.76
2016-03-19T03:32:11.965Z,5.67
2016-03-19T03:32:46.312Z,5.7
2016-03-19T03:33:46.298Z,5.61
2016-03-19T03:34:46.942Z,5.61
2016-03-19T03:36:17.647Z,5.52
2016-03-19T03:36:46.400Z,5.59
2016-03-19T03:37:46.372Z,5.51
2016-03-19T03:38:46.453Z,5.38
2016-03-19T03:39:46.408Z,5.47
2016-03-19T03:40:46.442Z,5.4
2016-03-19T03:41:46.648Z,5.44
2016-03-19T03:42:46.464Z,5.49
2016-03-19T03:43:46.481Z,5.51
2016-03-19T03:44:46.499Z,5.44
2016-03-19T03:45:52.768Z,5.36
2016-03-19T03:46:46.536Z,5.36
2016-03-19T03:47:46.554Z,5.43
2016-03-19T03:48:46.557Z,5.49
2016-03-19T03:49:46.809Z,5.43
2016-03-19T03:50:59.313Z,5.47
2016-03-19T03:51:46.596Z,5.52
2016-03-19T03:52:46.630Z,5.54
2016-03-19T03:53:46.493Z,5.61
2016-03-19T03:54:46.651Z,5.62
2016-03-19T03:55:46.873Z,5.62
2016-03-19T03:56:46.687Z,5.58
2016-03-19T03:57:46.894Z,5.46
2016-03-19T03:58:53.006Z,5.55
2016-03-19T03:59:46.742Z,5.56
2016-03-19T04:00:59.573Z,5.59
2016-03-19T04:01:46.764Z,5.51
2016-03-19T04:03:05.985Z,5.61
2016-03-19T04:03:49.878Z,5.51
2016-03-19T04:04:49.882Z,5.56
2016-03-19T04:05:51.306Z,5.52
2016-03-19T04:07:02.636Z,5.52
2016-03-19T04:07:49.952Z,5.58
2016-03-19T04:09:09.267Z,5.59
2016-03-19T04:09:51.379Z,5.55
2016-03-19T04:10:49.975Z,5.52
2016-03-19T04:11:53.119Z,5.49
2016-03-19T04:12:50.011Z,5.52
2016-03-19T04:13:50.047Z,5.55
2016-03-19T04:14:56.361Z,5.54
2016-03-19T04:15:50.083Z,5.56
2016-03-19T04:17:02.805Z,5.46
2016-03-19T04:17:50.104Z,5.47
2016-03-19T04:19:09.325Z,5.4
2016-03-19T04:20:02.875Z,5.49
2016-03-19T04:20:50.144Z,5.49
2016-03-19T04:21:50.146Z,5.47
2016-03-19T04:22:50.179Z,5.46
2016-03-19T04:23:50.198Z,5.52
2016-03-19T04:24:50.201Z,5.38
2016-03-19T04:25:57.093Z,5.47
2016-03-19T04:26:50.316Z,5.43
2016-03-19T04:28:02.974Z,5.43
2016-03-19T04:28:50.290Z,5.44
2016-03-19T04:29:50.276Z,5.37
2016-03-19T04:30:50.310Z,5.33
2016-03-19T04:31:50.298Z,5.38
2016-03-19T04:32:50.347Z,5.26
2016-03-19T04:33:50.959Z,5.22
2016-03-19T04:34:50.274Z,5.16
2016-03-19T04:35:50.387Z,5.19
2016-03-19T04:37:03.139Z,5.13
2016-03-19T04:37:50.423Z,5.16
2016-03-19T04:39:16.114Z,5.08
2016-03-19T04:40:03.209Z,5.05
2016-03-19T04:41:21.775Z,5.08
2016-03-19T04:42:09.683Z,5.07
2016-03-19T04:42:50.484Z,5.1
2016-03-19T04:43:50.517Z,5.08
2016-03-19T04:44:50.505Z,5.08
2016-03-19T04:45:56.788Z,5.04
2016-03-19T04:46:50.557Z,5.12
2016-03-19T04:47:56.841Z,5.15
2016-03-19T04:48:50.593Z,5.16
2016-03-19T04:49:50.612Z,5.15
2016-03-19T04:50:50.646Z,5.15
2016-03-19T04:51:50.633Z,5.16
2016-03-19T04:52:50.651Z,5.16
2016-03-19T04:53:50.701Z,5.16
2016-03-19T04:54:50.875Z,5.04
2016-03-19T04:55:50.721Z,5
2016-03-19T04:56:50.724Z,4.94
2016-03-19T04:57:50.727Z,4.94
2016-03-19T04:59:03.526Z,4.87
2016-03-19T04:59:50.763Z,4.87
2016-03-19T05:01:09.970Z,4.87
2016-03-19T05:01:50.785Z,4.86
2016-03-19T05:02:50.851Z,4.79
2016-03-19T05:04:03.571Z,4.86
2016-03-19T05:04:50.839Z,4.87
2016-03-19T05:06:10.109Z,4.9
2016-03-19T05:06:53.986Z,4.9
2016-03-19T05:07:54.019Z,4.94
2016-03-19T05:09:06.772Z,5
2016-03-19T05:10:13.228Z,5.02
2016-03-19T05:11:13.278Z,5
2016-03-19T05:12:19.233Z,5
2016-03-19T05:12:54.065Z,4.95
2016-03-19T05:13:54.114Z,4.94
2016-03-19T05:15:00.367Z,4.89
2016-03-19T05:16:00.556Z,5
2016-03-19T05:17:13.341Z,4.86
2016-03-19T05:18:06.890Z,5
2016-03-19T05:18:55.580Z,5.02
2016-03-19T05:20:07.145Z,5
2016-03-19T05:20:54.305Z,4.98
2016-03-19T05:22:19.947Z,4.92
2016-03-19T05:22:54.279Z,4.92
2016-03-19T05:23:54.249Z,4.98
2016-03-19T05:24:54.300Z,4.94
2016-03-19T05:26:00.552Z,4.89
2016-03-19T05:27:07.039Z,5
2016-03-19T05:27:54.902Z,4.87
2016-03-19T05:29:13.560Z,4.92
2016-03-19T05:29:54.344Z,5
2016-03-19T05:31:20.018Z,4.87
2016-03-19T05:32:07.115Z,4.9
2016-03-19T05:33:20.071Z,4.9
2016-03-19T05:34:07.151Z,5.05
2016-03-19T05:35:20.093Z,4.98
2016-03-19T05:35:54.454Z,5.05
2016-03-19T05:37:20.129Z,4.97
2016-03-19T05:38:04.147Z,5.01
2016-03-19T05:39:04.025Z,4.83
2016-03-19T05:40:10.450Z,4.98
2016-03-19T05:41:10.327Z,4.97
2016-03-19T05:42:23.408Z,4.95
2016-03-19T05:43:16.863Z,4.9
2016-03-19T05:44:04.195Z,4.92
2016-03-19T05:45:17.072Z,4.97
2016-03-19T05:46:04.153Z,4.89
2016-03-19T05:47:23.390Z,4.92
2016-03-19T05:48:07.392Z,4.92
2016-03-19T05:49:07.458Z,4.95
2016-03-19T05:50:08.085Z,4.95
2016-03-19T05:51:07.480Z,4.95
2016-03-19T05:52:07.482Z,4.95
2016-03-19T05:53:07.500Z,4.94
2016-03-19T05:54:20.283Z,4.9
2016-03-19T05:55:14.552Z,4.92
2016-03-19T05:56:33.229Z,4.95
2016-03-19T05:57:07.588Z,4.9
2016-03-19T05:58:07.607Z,5.02
2016-03-19T05:59:33.300Z,4.92
2016-03-19T06:00:20.363Z,4.9
2016-03-19T06:02:10.242Z,4.94
2016-03-19T06:02:22.836Z,4.9
2016-03-19T06:03:22.887Z,4.86
2016-03-19T06:04:29.157Z,4.97
2016-03-19T06:05:23.110Z,5.02
2016-03-19T06:06:22.753Z,5.05
2016-03-19T06:07:29.165Z,5.1
2016-03-19T06:08:29.183Z,5.15
2016-03-19T06:09:22.933Z,5.12
2016-03-19T06:10:35.736Z,5.18
2016-03-19T06:11:29.253Z,5.29
2016-03-19T06:12:42.210Z,5.34
2016-03-19T06:13:23.007Z,5.4
2016-03-19T06:14:48.700Z,5.51
2016-03-19T06:15:44.577Z,5.46
2016-03-19T06:16:31.845Z,5.77
2016-03-19T06:17:51.380Z,5.99
2016-03-19T06:18:35.257Z,6.15
2016-03-19T06:19:35.291Z,6.17
2016-03-19T06:20:48.044Z,6.17
2016-03-19T06:21:48.031Z,6.16
2016-03-19T06:22:54.533Z,6.32
2016-03-19T06:23:38.458Z,6.64
2016-03-19T06:24:38.460Z,7.08
2016-03-19T06:25:38.480Z,7.33
2016-03-19T06:26:38.497Z,7.44
2016-03-19T06:27:38.640Z,7.47
2016-03-19T06:28:38.518Z,7.36
2016-03-19T06:29:38.552Z,7.33
2016-03-19T06:30:38.402Z,7.37
2016-03-19T06:31:38.576Z,7.8
2016-03-19T06:32:38.595Z,8.52
2016-03-19T06:33:38.629Z,8.96
2016-03-19T06:34:38.631Z,9.13
2016-03-19T06:35:38.649Z,9.13
2016-03-19T06:36:38.668Z,9.03
2016-03-19T06:37:38.717Z,8.77
2016-03-19T06:38:38.689Z,8.52
2016-03-19T06:39:38.706Z,8.42
2016-03-19T06:40:38.726Z,8.21
2016-03-19T06:41:38.759Z,8.08
2016-03-19T06:42:39.418Z,8.03
2016-03-19T06:43:38.781Z,8.03
2016-03-19T06:44:38.830Z,8.09
2016-03-19T06:45:38.817Z,8.06
2016-03-19T06:46:38.850Z,8.26
2016-03-19T06:47:38.854Z,8.14
2016-03-19T06:48:38.888Z,8.31
2016-03-19T06:49:38.906Z,8.74
2016-03-19T06:50:38.924Z,9.45
2016-03-19T06:51:38.927Z,10.12
2016-03-19T06:52:51.695Z,10.48
2016-03-19T06:53:38.979Z,10.46
2016-03-19T06:54:38.966Z,10.38
2016-03-19T06:55:38.985Z,10.27
2016-03-19T06:56:39.002Z,10.34
2016-03-19T06:57:39.037Z,10.25
2016-03-19T06:58:39.040Z,10.34
2016-03-19T06:59:39.105Z,11.07
2016-03-19T07:00:39.076Z,11.93
2016-03-19T07:01:39.219Z,12.15
2016-03-19T07:02:39.159Z,12.32
2016-03-19T07:03:39.225Z,11.99
2016-03-19T07:04:39.181Z,11.78
2016-03-19T07:05:39.402Z,11.49
2016-03-19T07:06:39.233Z,11.16
2016-03-19T07:07:39.220Z,10.71
2016-03-19T07:08:39.254Z,10.68
2016-03-19T07:09:39.288Z,10.59
2016-03-19T07:10:39.290Z,10.55
2016-03-19T07:11:39.528Z,10.41
2016-03-19T07:12:39.498Z,10.43
2016-03-19T07:13:39.314Z,10.12
2016-03-19T07:14:39.348Z,9.95
2016-03-19T07:15:39.366Z,9.81
2016-03-19T07:16:39.417Z,9.74
2016-03-19T07:17:39.434Z,9.52
2016-03-19T07:18:39.453Z,9.4
2016-03-19T07:19:39.455Z,9.16
2016-03-19T07:20:39.474Z,8.99
2016-03-19T07:21:39.523Z,8.97
2016-03-19T07:22:39.526Z,9.03
2016-03-19T07:23:39.591Z,9.16
2016-03-19T07:24:39.547Z,9.21
2016-03-19T07:25:39.566Z,9.3
2016-03-19T07:26:39.583Z,9.42
2016-03-19T07:27:41.008Z,9.49
2016-03-19T07:28:39.605Z,9.16
2016-03-19T07:29:40.264Z,9.12
2016-03-19T07:30:39.688Z,9.12
2016-03-19T07:31:39.722Z,9.05
2016-03-19T07:32:39.741Z,9.26
2016-03-19T07:33:39.727Z,9.16
2016-03-19T07:34:52.465Z,9.29
2016-03-19T07:35:39.749Z,9.34
2016-03-19T07:36:39.798Z,9.39
2016-03-19T07:37:39.645Z,9.16
2016-03-19T07:38:39.835Z,9.13
2016-03-19T07:39:39.806Z,8.79
2016-03-19T07:40:39.840Z,8.69
2016-03-19T07:41:39.873Z,8.64
2016-03-19T07:42:39.893Z,8.71
2016-03-19T07:43:39.926Z,8.93
2016-03-19T07:44:39.914Z,9.05
2016-03-19T07:45:39.947Z,8.93
2016-03-19T07:46:39.965Z,8.96
2016-03-19T07:47:40.000Z,9.15
2016-03-19T07:48:40.017Z,9.26
2016-03-19T07:49:40.067Z,9.22
2016-03-19T07:50:40.055Z,9.29
2016-03-19T07:51:40.183Z,9.37
2016-03-19T07:52:40.060Z,9.47
2016-03-19T07:53:40.109Z,9.55
2016-03-19T07:54:40.127Z,9.63
2016-03-19T07:55:40.146Z,9.67
2016-03-19T07:56:40.163Z,9.77
2016-03-19T07:57:40.182Z,9.77
2016-03-19T07:58:40.201Z,9.55
2016-03-19T07:59:40.235Z,9.59
2016-03-19T08:00:40.424Z,9.64
2016-03-19T08:01:40.255Z,9.88
2016-03-19T08:02:40.290Z,9.76
2016-03-19T08:03:40.292Z,9.95
2016-03-19T08:04:40.296Z,9.91
2016-03-19T08:05:40.532Z,9.88
2016-03-19T08:06:40.348Z,9.87
2016-03-19T08:07:40.381Z,9.92
2016-03-19T08:08:40.399Z,9.8
2016-03-19T08:09:40.417Z,9.58
2016-03-19T08:10:40.436Z,9.74
2016-03-19T08:11:40.439Z,9.76
2016-03-19T08:12:40.973Z,9.87
2016-03-19T08:13:40.601Z,9.85
2016-03-19T08:14:40.495Z,9.92
2016-03-19T08:15:46.809Z,9.94
2016-03-19T08:16:40.562Z,9.56
2016-03-19T08:17:40.595Z,9.54
2016-03-19T08:18:40.614Z,9.03
2016-03-19T08:19:40.648Z,9.11
2016-03-19T08:20:40.620Z,9.39
2016-03-19T08:21:46.903Z,9.64
2016-03-19T08:22:40.031Z,9.87
2016-03-19T08:23:40.706Z,9.84
2016-03-19T08:24:40.724Z,9.9
2016-03-19T08:25:40.727Z,9.97
2016-03-19T08:26:40.761Z,10.13
2016-03-19T08:27:40.748Z,10.46
2016-03-19T08:28:40.797Z,10.38
2016-03-19T08:29:40.815Z,10.61
2016-03-19T08:30:41.474Z,10.69
2016-03-19T08:32:06.540Z,10.75
2016-03-19T08:32:40.871Z,10.8
2016-03-19T08:33:41.655Z,10.75
2016-03-19T08:34:40.924Z,10.98
2016-03-19T08:35:40.926Z,11.16
2016-03-19T08:36:40.959Z,11.37
2016-03-19T08:37:40.977Z,11.56
2016-03-19T08:38:41.012Z,11.58
2016-03-19T08:39:53.842Z,11.76
2016-03-19T08:40:41.017Z,11.96
2016-03-19T08:42:06.738Z,12.08
2016-03-19T08:42:41.663Z,12.14
2016-03-19T08:44:12.478Z,12.15
2016-03-19T08:44:44.137Z,12.17
2016-03-19T08:45:41.140Z,12.1
2016-03-19T08:46:41.142Z,11.93
2016-03-19T08:47:41.161Z,11.93
2016-03-19T08:48:41.210Z,11.83
2016-03-19T08:49:41.198Z,11.88
2016-03-19T08:50:41.262Z,11.85
2016-03-19T08:51:53.999Z,11.74
2016-03-19T08:52:41.456Z,11.58
2016-03-19T08:54:00.489Z,11.67
2016-03-19T08:54:50.711Z,11.8
2016-03-19T08:55:44.432Z,11.99
2016-03-19T08:56:44.654Z,11.95
2016-03-19T08:58:03.672Z,11.88
2016-03-19T08:58:44.471Z,11.81
2016-03-19T08:59:44.569Z,12.02
2016-03-19T09:00:44.508Z,12.07
2016-03-19T09:01:44.558Z,12.03
2016-03-19T09:02:44.591Z,11.96
2016-03-19T09:03:44.610Z,11.97
2016-03-19T09:04:44.597Z,11.59
2016-03-19T09:05:44.896Z,11.4
2016-03-19T09:06:44.760Z,11.22
2016-03-19T09:07:44.808Z,11.4
2016-03-19T09:08:44.780Z,11.43
2016-03-19T09:09:57.438Z,11.33
2016-03-19T09:10:52.410Z,11.4
2016-03-19T09:11:44.818Z,11.26
2016-03-19T09:12:44.790Z,11.18
2016-03-19T09:13:44.808Z,11.16
2016-03-19T09:14:44.843Z,11.08
2016-03-19T09:15:44.829Z,10.82
2016-03-19T09:16:57.661Z,10.65
2016-03-19T09:17:45.023Z,10.65
2016-03-19T09:18:44.916Z,10.53
2016-03-19T09:19:44.919Z,10.33
2016-03-19T09:20:44.983Z,10.2
2016-03-19T09:22:04.206Z,9.88
2016-03-19T09:22:57.739Z,9.45
2016-03-19T09:24:10.695Z,9.51
2016-03-19T09:25:04.260Z,9.59
2016-03-19T09:26:16.606Z,9.54
2016-03-19T09:27:14.063Z,9.59
2016-03-19T09:28:19.752Z,9.72
2016-03-19T09:28:51.630Z,9.84
2016-03-19T09:29:51.680Z,9.9
2016-03-19T09:30:51.730Z,9.8
2016-03-19T09:31:51.763Z,9.73
2016-03-19T09:32:51.704Z,9.64
2016-03-19T09:33:53.128Z,9.64
2016-03-19T09:34:51.755Z,9.76
2016-03-19T09:35:51.837Z,9.67
2016-03-19T09:36:51.793Z,9.58
2016-03-19T09:37:51.796Z,9.52
2016-03-19T09:38:51.860Z,9.45
2016-03-19T09:39:51.863Z,9.42
2016-03-19T09:40:51.866Z,9.49
2016-03-19T09:41:51.899Z,9.45
2016-03-19T09:42:51.918Z,9.45
2016-03-19T09:43:51.937Z,9.54
2016-03-19T09:44:51.939Z,9.63
2016-03-19T09:45:52.129Z,9.74
2016-03-19T09:47:04.741Z,9.85
2016-03-19T09:47:52.120Z,9.73
2016-03-19T09:49:11.387Z,9.76
2016-03-19T09:49:52.671Z,9.63
2016-03-19T09:51:18.003Z,9.55
2016-03-19T09:52:01.880Z,9.56
2016-03-19T09:53:01.898Z,9.55
2016-03-19T09:54:01.900Z,9.58
2016-03-19T09:55:01.934Z,9.81
2016-03-19T09:56:02.234Z,9.77
2016-03-19T09:57:02.018Z,9.8
2016-03-19T09:58:02.192Z,9.82
2016-03-19T09:59:02.024Z,9.87
2016-03-19T10:00:02.058Z,9.84
2016-03-19T10:01:02.092Z,9.85
2016-03-19T10:02:02.094Z,9.94
2016-03-19T10:03:02.113Z,10.02
2016-03-19T10:04:02.255Z,10.07
2016-03-19T10:05:02.305Z,10.15
2016-03-19T10:06:02.308Z,10.43
2016-03-19T10:07:02.358Z,10.38
2016-03-19T10:08:02.329Z,10.41
2016-03-19T10:09:02.301Z,10.42
2016-03-19T10:10:02.349Z,10.42
2016-03-19T10:11:02.321Z,10.31
2016-03-19T10:12:02.965Z,10.25
2016-03-19T10:13:15.421Z,10.33
2016-03-19T10:14:02.315Z,10.49
2016-03-19T10:15:02.334Z,10.61
2016-03-19T10:16:02.399Z,10.13
2016-03-19T10:17:08.589Z,10.15
2016-03-19T10:18:02.342Z,10.39
2016-03-19T10:19:02.375Z,10.48
2016-03-19T10:20:02.372Z,10.53
2016-03-19T10:21:02.384Z,10.64
2016-03-19T10:22:02.398Z,10.72
2016-03-19T10:23:02.426Z,10.94
2016-03-19T10:24:02.704Z,10.89
2016-03-19T10:25:02.470Z,10.92
2016-03-19T10:26:02.518Z,10.82
2016-03-19T10:27:02.488Z,10.77
2016-03-19T10:28:02.551Z,10.8
2016-03-19T10:29:02.521Z,10.76
2016-03-19T10:30:02.537Z,10.87
2016-03-19T10:31:02.586Z,11.02
2016-03-19T10:32:02.573Z,11.05
2016-03-19T10:33:02.622Z,10.92
2016-03-19T10:34:02.592Z,10.86
2016-03-19T10:35:02.642Z,10.84
2016-03-19T10:36:02.660Z,10.89
2016-03-19T10:37:02.709Z,10.89
2016-03-19T10:38:02.711Z,10.86
2016-03-19T10:39:02.745Z,11.13
2016-03-19T10:40:02.731Z,11.33
2016-03-19T10:41:02.734Z,11.38
2016-03-19T10:42:02.814Z,11.2
2016-03-19T10:43:02.786Z,11.23
2016-03-19T10:44:02.836Z,11
2016-03-19T10:45:02.823Z,11.02
2016-03-19T10:46:02.998Z,11.08
2016-03-19T10:47:02.891Z,11.02
2016-03-19T10:48:03.253Z,10.92
2016-03-19T10:49:02.943Z,10.75
2016-03-19T10:50:03.055Z,10.61
2016-03-19T10:51:15.730Z,10.57
2016-03-19T10:52:02.998Z,10.53
2016-03-19T10:53:03.016Z,10.43
2016-03-19T10:54:03.035Z,10.46
2016-03-19T10:55:03.054Z,10.3
2016-03-19T10:56:03.072Z,10.34
2016-03-19T10:57:03.059Z,10.27
2016-03-19T10:58:15.874Z,10.3
2016-03-19T10:59:03.142Z,10.42
2016-03-19T11:00:03.145Z,10.34
2016-03-19T11:01:03.210Z,10.18
2016-03-19T11:02:03.212Z,10.31
2016-03-19T11:03:03.278Z,10.17
2016-03-19T11:04:03.234Z,10.25
2016-03-19T11:05:03.251Z,10.3
2016-03-19T11:06:03.286Z,10.39
2016-03-19T11:07:03.304Z,10.33
2016-03-19T11:08:03.322Z,10.43
2016-03-19T11:09:03.341Z,10.48
2016-03-19T11:10:03.344Z,10.39
2016-03-19T11:11:03.378Z,10.45
2016-03-19T11:12:03.411Z,10.28
2016-03-19T11:13:03.414Z,10.36
2016-03-19T11:14:03.776Z,10.25
2016-03-19T11:15:03.466Z,10.42
2016-03-19T11:16:03.516Z,10.31
2016-03-19T11:17:09.769Z,10.3
2016-03-19T11:18:03.521Z,10.39
2016-03-19T11:19:03.555Z,10.46
2016-03-19T11:20:03.573Z,10.61
2016-03-19T11:21:03.577Z,10.76
2016-03-19T11:22:03.579Z,10.79
2016-03-19T11:23:03.644Z,10.72
2016-03-19T11:24:03.631Z,10.75
2016-03-19T11:25:03.649Z,10.8
2016-03-19T11:26:03.683Z,10.84
2016-03-19T11:27:16.420Z,10.98
2016-03-19T11:28:03.736Z,11
2016-03-19T11:29:03.738Z,10.9
2016-03-19T11:30:03.773Z,10.46
2016-03-19T11:31:03.775Z,10.39
2016-03-19T11:32:06.809Z,10.53
2016-03-19T11:33:04.014Z,10.58
2016-03-19T11:34:23.064Z,10.76
2016-03-19T11:35:03.895Z,10.82
2016-03-19T11:36:03.882Z,10.69
2016-03-19T11:37:03.932Z,10.71
2016-03-19T11:38:03.935Z,10.75
2016-03-19T11:39:03.953Z,10.61
2016-03-19T11:40:04.081Z,10.77
2016-03-19T11:41:03.989Z,10.82
2016-03-19T11:42:04.023Z,10.94
2016-03-19T11:43:04.010Z,10.92
2016-03-19T11:44:04.060Z,11.05
2016-03-19T11:45:04.093Z,10.97
2016-03-19T11:46:04.096Z,10.77
2016-03-19T11:47:03.959Z,10.67
2016-03-19T11:48:04.133Z,10.61
2016-03-19T11:49:04.245Z,10.55
2016-03-19T11:50:04.170Z,10.61
2016-03-19T11:51:07.766Z,10.83
2016-03-19T11:52:04.221Z,11.04
2016-03-19T11:53:04.319Z,11.01
2016-03-19T11:54:04.274Z,11.05
2016-03-19T11:55:04.308Z,11.22
2016-03-19T11:56:04.310Z,11.33
2016-03-19T11:57:10.626Z,11.45
2016-03-19T11:58:04.379Z,11.3
2016-03-19T11:59:04.381Z,11.15
2016-03-19T12:00:04.399Z,11.33
2016-03-19T12:01:04.434Z,11.31
2016-03-19T12:02:04.514Z,11.2
2016-03-19T12:03:17.190Z,11.35
2016-03-19T12:04:04.535Z,11.59
2016-03-19T12:05:30.163Z,11.81
2016-03-19T12:06:04.540Z,11.96
2016-03-19T12:07:04.543Z,11.99
2016-03-19T12:08:04.562Z,12.1
2016-03-19T12:09:04.423Z,12.26
2016-03-19T12:10:04.598Z,12.28
2016-03-19T12:11:04.617Z,12.2
2016-03-19T12:12:04.667Z,12.26
2016-03-19T12:13:04.748Z,12.15
2016-03-19T12:14:04.672Z,12.11
2016-03-19T12:15:04.706Z,11.56
2016-03-19T12:16:04.927Z,11.31
2016-03-19T12:17:04.758Z,11.08
2016-03-19T12:18:04.791Z,11.08
2016-03-19T12:19:04.780Z,11.1
2016-03-19T12:20:04.797Z,11
2016-03-19T12:21:04.831Z,10.92
2016-03-19T12:22:04.849Z,11.02
2016-03-19T12:23:04.899Z,10.94
2016-03-19T12:24:04.902Z,10.8
2016-03-19T12:25:04.921Z,10.77
2016-03-19T12:26:04.954Z,10.89
2016-03-19T12:27:04.940Z,10.79
2016-03-19T12:28:04.975Z,10.86
2016-03-19T12:29:05.009Z,10.84
2016-03-19T12:30:05.012Z,11.02
2016-03-19T12:31:05.046Z,11.25
2016-03-19T12:32:05.064Z,11.38
2016-03-19T12:33:05.082Z,11.43
2016-03-19T12:34:05.115Z,11.37
2016-03-19T12:35:11.401Z,11.58
2016-03-19T12:36:05.137Z,11.63
2016-03-19T12:37:05.170Z,11.7
2016-03-19T12:38:06.689Z,11.97
2016-03-19T12:39:05.223Z,11.95
2016-03-19T12:40:24.429Z,12.07
2016-03-19T12:41:08.323Z,12.11
2016-03-19T12:42:27.559Z,11.77
2016-03-19T12:43:08.375Z,11.59
2016-03-19T12:44:08.392Z,11.76
2016-03-19T12:45:21.146Z,11.65
2016-03-19T12:46:09.242Z,11.65
2016-03-19T12:47:08.447Z,11.7
2016-03-19T12:48:10.483Z,11.73
2016-03-19T12:49:09.110Z,11.8
2016-03-19T12:50:27.722Z,11.74
2016-03-19T12:51:21.256Z,11.76
2016-03-19T12:52:39.838Z,12
2016-03-19T12:53:23.760Z,12.12
2016-03-19T12:54:23.780Z,12.3
2016-03-19T12:55:23.797Z,12.32
2016-03-19T12:56:30.097Z,12.28
2016-03-19T12:57:23.818Z,12.3
2016-03-19T12:58:30.134Z,12.45
2016-03-19T12:59:23.871Z,12.51
2016-03-19T13:00:36.627Z,12.55
2016-03-19T13:01:30.189Z,12.58
2016-03-19T13:02:43.241Z,12.47
2016-03-19T13:03:39.884Z,12.36
2016-03-19T13:04:52.840Z,12.4
2016-03-19T13:05:27.184Z,12.35
2016-03-19T13:06:58.533Z,12.3
2016-03-19T13:07:42.457Z,12.15
2016-03-19T13:09:08.132Z,11.73
2016-03-19T13:09:42.478Z,11.74
2016-03-19T13:11:57.703Z,11.02
2016-03-19T13:12:57.753Z,10.9
2016-03-19T13:13:57.770Z,10.86
2016-03-19T13:15:10.539Z,10.72
2016-03-19T13:15:57.792Z,10.71
2016-03-19T13:18:07.375Z,10.27
2016-03-19T13:19:07.644Z,10.09